P.t. Monto — VMBF — position and weather

sailwx.info

Track history (hours):
 
Tides and Currents Weather Stations Pressure Air Temp Water Temp Dewpoint Dewpoint Depression Visibility Wind Speed Wind Dir Waves Ship Positions

P.t. Monto

Last reported at 2014-Sep-29 13:33 UTC. Time now 2014-Oct-02 00:29 UTC.
Position S 27°27' E 153°05'.

Length 32 m; draft 3 m.

Type: Tug. MMSI: 503612000.

Date/timePositionNaut miles runAvg speedWind from/ knotsBaromVisibWave heightAir tempDewpointWater temp
2014-Sep-29 13:33S 27°27' E 153°05'5 4.8
2014-Sep-29 12:34S 27°24' E 153°09'7 6.6
2014-Sep-29 11:34S 27°18' E 153°12'5 5.0
2014-Sep-29 10:33S 27°13' E 153°15'7 6.8
2014-Sep-29 09:34S 27°08' E 153°19'7 7.1
2014-Sep-29 08:33S 27°02' E 153°15'8 8.3
2014-Sep-29 07:34S 26°54' E 153°11'6 6.4
2014-Sep-29 06:33S 26°48' E 153°11'7 7.4
2014-Sep-29 05:32S 26°41' E 153°12'3 0.1
2014-Sep-27 17:32S 26°38' E 153°13'1010.5
2014-Sep-27 16:34S 26°48' E 153°11'10 9.8
2014-Sep-27 15:34S 26°58' E 153°13'1110.7
2014-Sep-27 14:34S 27°07' E 153°19'10 9.8
2014-Sep-27 13:34S 27°15' E 153°14'10 9.2
2014-Sep-27 12:31S 27°24' E 153°09'5 3.2
2014-Sep-27 11:05S 27°27' E 153°05'3 1.9
2014-Sep-27 09:17S 27°29' E 153°02'0 0.0
2014-Sep-27 07:15S 27°29' E 153°02'0 0.5
2014-Sep-27 06:29S 27°28' E 153°02'3 3.0
2014-Sep-27 05:30S 27°27' E 153°05'0 0.2
2014-Sep-27 02:32S 27°27' E 153°05'0 0.0
2014-Sep-27 01:27S 27°27' E 153°05'0 0.0
2014-Sep-27 00:31S 27°27' E 153°05'0 0.0
2014-Sep-26 23:29S 27°27' E 153°05'  
2014-Sep-22 23:21S 27°27' E 153°05'  
Track history (hours):
 
Tides and Currents Weather Stations Pressure Air Temp Water Temp Dewpoint Dewpoint Depression Visibility Wind Speed Wind Dir Waves Ship Positions

P.t. Monto

Last reported at 2014-Sep-29 13:33 UTC. Time now 2014-Oct-02 00:29 UTC.
Position S 27°27' E 153°05'.

Length 32 m; draft 3 m.

Type: Tug. MMSI: 503612000.

Date/timePositionNaut miles runAvg speedWind from/ knotsBaromVisibWave heightAir tempDewpointWater temp
2014-Sep-29 13:33S 27°27' E 153°05'5 4.8
2014-Sep-29 12:34S 27°24' E 153°09'7 6.6
2014-Sep-29 11:34S 27°18' E 153°12'5 5.0
2014-Sep-29 10:33S 27°13' E 153°15'7 6.8
2014-Sep-29 09:34S 27°08' E 153°19'7 7.1
2014-Sep-29 08:33S 27°02' E 153°15'8 8.3
2014-Sep-29 07:34S 26°54' E 153°11'6 6.4
2014-Sep-29 06:33S 26°48' E 153°11'7 7.4
2014-Sep-29 05:32S 26°41' E 153°12'3 0.1
2014-Sep-27 17:32S 26°38' E 153°13'1010.5
2014-Sep-27 16:34S 26°48' E 153°11'10 9.8
2014-Sep-27 15:34S 26°58' E 153°13'1110.7
2014-Sep-27 14:34S 27°07' E 153°19'10 9.8
2014-Sep-27 13:34S 27°15' E 153°14'10 9.2
2014-Sep-27 12:31S 27°24' E 153°09'5 3.2
2014-Sep-27 11:05S 27°27' E 153°05'3 1.9
2014-Sep-27 09:17S 27°29' E 153°02'0 0.0
2014-Sep-27 07:15S 27°29' E 153°02'0 0.5
2014-Sep-27 06:29S 27°28' E 153°02'3 3.0
2014-Sep-27 05:30S 27°27' E 153°05'0 0.2
2014-Sep-27 02:32S 27°27' E 153°05'0 0.0
2014-Sep-27 01:27S 27°27' E 153°05'0 0.0
2014-Sep-27 00:31S 27°27' E 153°05'0 0.0
2014-Sep-26 23:29S 27°27' E 153°05'  
2014-Sep-22 23:21S 27°27' E 153°05'  

Dump ship's entire track history